Time,TemperatureF,DewpointF,PressureIn,WindDirection,WindDirectionDegrees,WindSpeedMPH,WindSpeedGustMPH,Humidity,HourlyPrecipIn,Conditions,Clouds,dailyrainin,SoftwareType,DateUTC
2013-02-25 00:01:00,40.0,-3.0,-100.00,North,356,5.0,7.0,16,-99.99,,,-99.99,,2013-02-25 08:01:00,
2013-02-25 00:11:00,39.0,-2.0,-100.00,NNE,25,4.0,6.0,17,-99.99,,,-99.99,,2013-02-25 08:11:00,
2013-02-25 00:21:00,39.0,-1.0,-100.00,NNE,15,6.0,12.0,18,-99.99,,,-99.99,,2013-02-25 08:21:00,
2013-02-25 00:31:00,37.0,1.0,-100.00,NNE,16,6.0,8.0,21,-99.99,,,-99.99,,2013-02-25 08:31:00,
2013-02-25 00:41:00,37.0,1.0,-100.00,NNE,16,6.0,8.0,21,-99.99,,,-99.99,,2013-02-25 08:41:00,
2013-02-25 00:52:00,36.0,1.0,-100.00,NNE,16,7.0,8.0,22,-99.99,,,-99.99,,2013-02-25 08:52:00,
2013-02-25 01:01:00,36.0,1.0,-100.00,North,356,4.0,8.0,22,-99.99,,,-99.99,,2013-02-25 09:01:00,
2013-02-25 01:12:00,35.0,1.0,-100.00,NNE,12,0.0,2.0,23,-99.99,,,-99.99,,2013-02-25 09:12:00,
2013-02-25 01:21:00,35.0,0.0,-100.00,SW,236,1.0,2.0,22,-99.99,,,-99.99,,2013-02-25 09:21:00,
2013-02-25 01:31:00,36.0,1.0,-100.00,SSW,195,1.0,4.0,22,-99.99,,,-99.99,,2013-02-25 09:31:00,
2013-02-25 01:41:00,36.0,1.0,-100.00,NW,309,3.0,6.0,22,-99.99,,,-99.99,,2013-02-25 09:41:00,
2013-02-25 01:51:00,37.0,1.0,-100.00,ENE,58,2.0,4.0,21,-99.99,,,-99.99,,2013-02-25 09:51:00,
2013-02-25 02:01:00,35.0,1.0,-100.00,SSE,162,3.0,6.0,23,-99.99,,,-99.99,,2013-02-25 10:01:00,
2013-02-25 02:11:00,35.0,0.0,-100.00,South,172,1.0,2.0,22,-99.99,,,-99.99,,2013-02-25 10:11:00,
2013-02-25 02:21:00,36.0,1.0,-100.00,SSE,160,2.0,4.0,22,-99.99,,,-99.99,,2013-02-25 10:21:00,
2013-02-25 02:31:00,37.0,0.0,-100.00,NNE,18,2.0,4.0,20,-99.99,,,-99.99,,2013-02-25 10:31:00,
2013-02-25 02:41:00,37.0,0.0,-100.00,NW,307,1.0,3.0,20,-99.99,,,-99.99,,2013-02-25 10:41:00,
2013-02-25 02:52:00,35.0,0.0,-100.00,NE,45,1.0,3.0,22,-99.99,,,-99.99,,2013-02-25 10:52:00,
2013-02-25 03:01:00,35.0,1.0,-100.00,ENE,71,3.0,6.0,23,-99.99,,,-99.99,,2013-02-25 11:01:00,
2013-02-25 03:11:00,38.0,1.0,-100.00,NE,37,6.0,8.0,20,-99.99,,,-99.99,,2013-02-25 11:11:00,
2013-02-25 03:21:00,39.0,0.0,-100.00,NE,38,8.0,11.0,19,-99.99,,,-99.99,,2013-02-25 11:21:00,
2013-02-25 03:32:00,38.0,1.0,-100.00,NE,35,6.0,10.0,20,-99.99,,,-99.99,,2013-02-25 11:32:00,
2013-02-25 03:42:00,39.0,0.0,-100.00,NNE,26,6.0,11.0,19,-99.99,,,-99.99,,2013-02-25 11:42:00,
2013-02-25 03:52:00,38.0,1.0,-100.00,NNE,13,5.0,9.0,20,-99.99,,,-99.99,,2013-02-25 11:52:00,
2013-02-25 04:01:00,40.0,-1.0,-100.00,NE,40,7.0,12.0,17,-99.99,,,-99.99,,2013-02-25 12:01:00,
2013-02-25 04:11:00,40.0,-1.0,-100.00,NE,36,6.0,8.0,17,-99.99,,,-99.99,,2013-02-25 12:11:00,
2013-02-25 04:21:00,40.0,0.0,-100.00,NE,52,5.0,6.0,18,-99.99,,,-99.99,,2013-02-25 12:21:00,
2013-02-25 04:32:00,40.0,-1.0,-100.00,ENE,58,6.0,7.0,17,-99.99,,,-99.99,,2013-02-25 12:32:00,
2013-02-25 04:41:00,39.0,-1.0,-100.00,NE,51,6.0,9.0,18,-99.99,,,-99.99,,2013-02-25 12:41:00,
2013-02-25 04:53:00,39.0,-1.0,-100.00,NE,49,5.0,7.0,18,-99.99,,,-99.99,,2013-02-25 12:53:00,
2013-02-25 05:01:00,40.0,-1.0,-100.00,ENE,70,4.0,6.0,17,-99.99,,,-99.99,,2013-02-25 13:01:00,
2013-02-25 05:12:00,39.0,-2.0,-100.00,ESE,108,2.0,6.0,17,-99.99,,,-99.99,,2013-02-25 13:12:00,
2013-02-25 05:21:00,39.0,-1.0,-100.00,South,186,1.0,3.0,18,-99.99,,,-99.99,,2013-02-25 13:21:00,
2013-02-25 05:31:00,39.0,-2.0,-100.00,NW,313,1.0,4.0,17,-99.99,,,-99.99,,2013-02-25 13:31:00,
2013-02-25 05:41:00,40.0,-3.0,-100.00,WSW,241,1.0,3.0,16,-99.99,,,-99.99,,2013-02-25 13:41:00,
2013-02-25 05:51:00,39.0,-1.0,-100.00,NNW,328,3.0,5.0,18,-99.99,,,-99.99,,2013-02-25 13:51:00,
2013-02-25 06:02:00,39.0,-2.0,-100.00,NNE,21,5.0,7.0,17,-99.99,,,-99.99,,2013-02-25 14:02:00,
2013-02-25 06:14:00,36.0,0.0,-100.00,WSW,246,2.0,3.0,21,-99.99,,,-99.99,,2013-02-25 14:14:00,
2013-02-25 06:21:00,37.0,0.0,-100.00,NW,304,1.0,3.0,20,-99.99,,,-99.99,,2013-02-25 14:21:00,
2013-02-25 06:31:00,37.0,0.0,-100.00,NNW,336,2.0,5.0,20,-99.99,,,-99.99,,2013-02-25 14:31:00,
2013-02-25 06:41:00,36.0,1.0,-100.00,SW,228,2.0,3.0,22,-99.99,,,-99.99,,2013-02-25 14:41:00,
2013-02-25 06:52:00,36.0,0.0,-100.00,SE,141,1.0,2.0,21,-99.99,,,-99.99,,2013-02-25 14:52:00,
2013-02-25 07:02:00,38.0,-1.0,-100.00,ESE,108,0.0,1.0,19,-99.99,,,-99.99,,2013-02-25 15:02:00,
2013-02-25 07:11:00,38.0,-1.0,-100.00,ESE,118,2.0,4.0,19,-99.99,,,-99.99,,2013-02-25 15:11:00,
2013-02-25 07:21:00,40.0,-1.0,-100.00,South,175,2.0,5.0,17,-99.99,,,-99.99,,2013-02-25 15:21:00,
2013-02-25 07:32:00,41.0,-3.0,-100.00,SSW,211,1.0,4.0,15,-99.99,,,-99.99,,2013-02-25 15:32:00,
2013-02-25 07:41:00,42.0,-2.0,-100.00,NE,44,1.0,3.0,15,-99.99,,,-99.99,,2013-02-25 15:41:00,
2013-02-25 07:51:00,42.0,-2.0,-100.00,WNW,292,1.0,3.0,15,-99.99,,,-99.99,,2013-02-25 15:51:00,
2013-02-25 08:01:00,42.0,-2.0,-100.00,WNW,296,2.0,3.0,15,-99.99,,,-99.99,,2013-02-25 16:01:00,
2013-02-25 08:11:00,42.0,-1.0,-100.00,NNW,338,2.0,3.0,16,-99.99,,,-99.99,,2013-02-25 16:11:00,
2013-02-25 08:21:00,44.0,1.0,-100.00,NE,46,2.0,5.0,16,-99.99,,,-99.99,,2013-02-25 16:21:00,
2013-02-25 08:31:00,44.0,-1.0,-100.00,NNW,346,3.0,7.0,15,-99.99,,,-99.99,,2013-02-25 16:31:00,
2013-02-25 08:41:00,45.0,0.0,-100.00,North,10,2.0,6.0,15,-99.99,,,-99.99,,2013-02-25 16:41:00,
2013-02-25 08:51:00,47.0,2.0,-100.00,North,357,2.0,5.0,15,-99.99,,,-99.99,,2013-02-25 16:51:00,
2013-02-25 09:01:00,48.0,1.0,-100.00,NNE,22,4.0,10.0,14,-99.99,,,-99.99,,2013-02-25 17:01:00,
2013-02-25 09:11:00,47.0,0.0,-100.00,NE,35,5.0,8.0,14,-99.99,,,-99.99,,2013-02-25 17:11:00,
2013-02-25 09:31:00,50.0,1.0,-100.00,NNW,340,2.0,6.0,13,-99.99,,,-99.99,,2013-02-25 17:31:00,
2013-02-25 09:41:00,50.0,1.0,-100.00,NW,313,3.0,7.0,13,-99.99,,,-99.99,,2013-02-25 17:41:00,
2013-02-25 09:52:00,50.0,1.0,-100.00,WNW,283,3.0,8.0,13,-99.99,,,-99.99,,2013-02-25 17:52:00,
2013-02-25 10:01:00,51.0,0.0,-100.00,NNE,12,4.0,7.0,12,-99.99,,,-99.99,,2013-02-25 18:01:00,
2013-02-25 10:12:00,52.0,1.0,-100.00,North,5,4.0,9.0,12,-99.99,,,-99.99,,2013-02-25 18:12:00,
2013-02-25 10:21:00,53.0,2.0,-100.00,North,354,3.0,8.0,12,-99.99,,,-99.99,,2013-02-25 18:21:00,
2013-02-25 10:32:00,53.0,0.0,-100.00,NNE,21,4.0,10.0,11,-99.99,,,-99.99,,2013-02-25 18:32:00,
2013-02-25 10:41:00,53.0,0.0,-100.00,NNE,12,2.0,8.0,11,-99.99,,,-99.99,,2013-02-25 18:41:00,
2013-02-25 10:51:00,54.0,1.0,-100.00,North,5,3.0,11.0,11,-99.99,,,-99.99,,2013-02-25 18:51:00,
2013-02-25 11:01:00,54.0,3.0,-100.00,NW,315,6.0,11.0,12,-99.99,,,-99.99,,2013-02-25 19:01:00,
2013-02-25 11:11:00,53.0,4.0,-100.00,WNW,301,7.0,11.0,13,-99.99,,,-99.99,,2013-02-25 19:11:00,
2013-02-25 11:21:00,53.0,4.0,-100.00,West,272,6.0,13.0,13,-99.99,,,-99.99,,2013-02-25 19:21:00,
2013-02-25 11:31:00,53.0,7.0,-100.00,West,261,8.0,15.0,15,-99.99,,,-99.99,,2013-02-25 19:31:00,
2013-02-25 11:41:00,52.0,6.0,-100.00,WSW,256,8.0,13.0,15,-99.99,,,-99.99,,2013-02-25 19:41:00,
2013-02-25 11:52:00,52.0,6.0,-100.00,WSW,258,8.0,14.0,15,-99.99,,,-99.99,,2013-02-25 19:52:00,
2013-02-25 12:01:00,53.0,5.0,-100.00,West,259,8.0,15.0,14,-99.99,,,-99.99,,2013-02-25 20:01:00,
2013-02-25 12:11:00,53.0,5.0,-100.00,WSW,251,8.0,16.0,14,-99.99,,,-99.99,,2013-02-25 20:11:00,
2013-02-25 12:21:00,54.0,7.0,-100.00,WSW,252,8.0,13.0,15,-99.99,,,-99.99,,2013-02-25 20:21:00,
2013-02-25 12:31:00,54.0,7.0,-100.00,West,262,6.0,13.0,15,-99.99,,,-99.99,,2013-02-25 20:31:00,
2013-02-25 12:41:00,54.0,7.0,-100.00,WSW,242,8.0,14.0,15,-99.99,,,-99.99,,2013-02-25 20:41:00,
2013-02-25 12:52:00,54.0,7.0,-100.00,West,260,8.0,14.0,15,-99.99,,,-99.99,,2013-02-25 20:52:00,
2013-02-25 13:01:00,54.0,9.0,-100.00,West,264,8.0,14.0,16,-99.99,,,-99.99,,2013-02-25 21:01:00,
2013-02-25 13:11:00,54.0,9.0,-100.00,West,264,8.0,13.0,16,-99.99,,,-99.99,,2013-02-25 21:11:00,
2013-02-25 13:21:00,54.0,9.0,-100.00,West,281,8.0,14.0,16,-99.99,,,-99.99,,2013-02-25 21:21:00,
2013-02-25 13:31:00,55.0,10.0,-100.00,West,264,6.0,13.0,16,-99.99,,,-99.99,,2013-02-25 21:31:00,
2013-02-25 13:41:00,55.0,10.0,-100.00,WNW,284,7.0,12.0,16,-99.99,,,-99.99,,2013-02-25 21:41:00,
2013-02-25 13:51:00,54.0,9.0,-100.00,WNW,284,7.0,13.0,16,-99.99,,,-99.99,,2013-02-25 21:51:00,
2013-02-25 14:01:00,56.0,9.0,-100.00,NW,309,6.0,11.0,15,-99.99,,,-99.99,,2013-02-25 22:01:00,
2013-02-25 14:11:00,56.0,9.0,-100.00,WNW,297,8.0,14.0,15,-99.99,,,-99.99,,2013-02-25 22:11:00,
2013-02-25 14:21:00,55.0,10.0,-100.00,WNW,296,8.0,13.0,16,-99.99,,,-99.99,,2013-02-25 22:21:00,
2013-02-25 14:31:00,54.0,9.0,-100.00,WNW,289,9.0,16.0,16,-99.99,,,-99.99,,2013-02-25 22:31:00,
2013-02-25 14:41:00,55.0,8.0,-100.00,NW,308,7.0,14.0,15,-99.99,,,-99.99,,2013-02-25 22:41:00,
2013-02-25 14:51:00,54.0,9.0,-100.00,WNW,283,8.0,17.0,16,-99.99,,,-99.99,,2013-02-25 22:51:00,
2013-02-25 15:01:00,54.0,9.0,-100.00,West,278,11.0,17.0,16,-99.99,,,-99.99,,2013-02-25 23:01:00,
2013-02-25 15:11:00,54.0,10.0,-100.00,West,268,10.0,16.0,17,-99.99,,,-99.99,,2013-02-25 23:11:00,
2013-02-25 15:21:00,54.0,10.0,-100.00,WNW,284,9.0,18.0,17,-99.99,,,-99.99,,2013-02-25 23:21:00,
2013-02-25 15:31:00,54.0,10.0,-100.00,WNW,286,10.0,16.0,17,-99.99,,,-99.99,,2013-02-25 23:31:00,
2013-02-25 15:41:00,54.0,10.0,-100.00,West,279,10.0,17.0,17,-99.99,,,-99.99,,2013-02-25 23:41:00,
2013-02-25 15:52:00,53.0,11.0,-100.00,WNW,284,12.0,18.0,18,-99.99,,,-99.99,,2013-02-25 23:52:00,
2013-02-25 16:01:00,53.0,12.0,-100.00,West,268,11.0,17.0,19,-99.99,,,-99.99,,2013-02-26 00:01:00,
2013-02-25 16:11:00,52.0,11.0,-100.00,West,274,11.0,16.0,19,-99.99,,,-99.99,,2013-02-26 00:11:00,
2013-02-25 16:21:00,52.0,11.0,-100.00,WNW,282,11.0,18.0,19,-99.99,,,-99.99,,2013-02-26 00:21:00,
2013-02-25 16:32:00,52.0,12.0,-100.00,West,279,12.0,17.0,20,-99.99,,,-99.99,,2013-02-26 00:32:00,
2013-02-25 16:41:00,52.0,12.0,-100.00,West,275,12.0,18.0,20,-99.99,,,-99.99,,2013-02-26 00:41:00,
2013-02-25 16:51:00,51.0,11.0,-100.00,WNW,282,14.0,20.0,20,-99.99,,,-99.99,,2013-02-26 00:51:00,
2013-02-25 17:01:00,50.0,12.0,-100.00,West,278,13.0,19.0,21,-99.99,,,-99.99,,2013-02-26 01:01:00,
2013-02-25 17:11:00,49.0,12.0,-100.00,West,279,13.0,20.0,22,-99.99,,,-99.99,,2013-02-26 01:11:00,
2013-02-25 17:21:00,48.0,13.0,-100.00,West,277,13.0,19.0,24,-99.99,,,-99.99,,2013-02-26 01:21:00,
2013-02-25 17:31:00,48.0,14.0,-100.00,WNW,284,12.0,17.0,25,-99.99,,,-99.99,,2013-02-26 01:31:00,
2013-02-25 17:41:00,47.0,13.0,-100.00,WNW,290,10.0,15.0,25,-99.99,,,-99.99,,2013-02-26 01:41:00,
2013-02-25 17:51:00,46.0,13.0,-100.00,WNW,288,8.0,11.0,26,-99.99,,,-99.99,,2013-02-26 01:51:00,
2013-02-25 18:01:00,45.0,13.0,-100.00,WNW,288,7.0,12.0,27,-99.99,,,-99.99,,2013-02-26 02:01:00,
2013-02-25 18:11:00,44.0,12.0,-100.00,WNW,289,9.0,12.0,27,-99.99,,,-99.99,,2013-02-26 02:11:00,
2013-02-25 18:21:00,43.0,13.0,-100.00,WNW,294,9.0,12.0,29,-99.99,,,-99.99,,2013-02-26 02:21:00,
2013-02-25 18:31:00,42.0,14.0,-100.00,WNW,296,6.0,10.0,31,-99.99,,,-99.99,,2013-02-26 02:31:00,
2013-02-25 18:41:00,41.0,13.0,-100.00,WNW,297,4.0,7.0,32,-99.99,,,-99.99,,2013-02-26 02:41:00,
2013-02-25 18:52:00,40.0,13.0,-100.00,WNW,292,4.0,8.0,33,-99.99,,,-99.99,,2013-02-26 02:52:00,
2013-02-25 19:01:00,40.0,13.0,-100.00,West,277,5.0,9.0,32,-99.99,,,-99.99,,2013-02-26 03:01:00,
2013-02-25 19:11:00,40.0,13.0,-100.00,SW,230,2.0,3.0,33,-99.99,,,-99.99,,2013-02-26 03:11:00,
2013-02-25 19:21:00,39.0,12.0,-100.00,West,268,4.0,7.0,33,-99.99,,,-99.99,,2013-02-26 03:21:00,
2013-02-25 19:31:00,38.0,11.0,-100.00,NNW,336,1.0,3.0,33,-99.99,,,-99.99,,2013-02-26 03:31:00,
2013-02-25 19:41:00,39.0,12.0,-100.00,NNW,332,2.0,4.0,32,-99.99,,,-99.99,,2013-02-26 03:41:00,
2013-02-25 19:51:00,40.0,12.0,-100.00,NNW,343,3.0,5.0,31,-99.99,,,-99.99,,2013-02-26 03:51:00,
2013-02-25 20:01:00,40.0,12.0,-100.00,NNW,346,5.0,7.0,31,-99.99,,,-99.99,,2013-02-26 04:01:00,
2013-02-25 20:11:00,39.0,14.0,-100.00,NNE,19,5.0,6.0,36,-99.99,,,-99.99,,2013-02-26 04:11:00,
2013-02-25 20:21:00,39.0,15.0,-100.00,NNE,18,5.0,6.0,37,-99.99,,,-99.99,,2013-02-26 04:21:00,
2013-02-25 20:31:00,39.0,16.0,-100.00,NNW,345,3.0,4.0,38,-99.99,,,-99.99,,2013-02-26 04:31:00,
2013-02-25 20:42:00,38.0,15.0,-100.00,NW,311,2.0,3.0,39,-99.99,,,-99.99,,2013-02-26 04:42:00,
2013-02-25 20:51:00,38.0,15.0,-100.00,NNW,339,3.0,3.0,38,-99.99,,,-99.99,,2013-02-26 04:51:00,
2013-02-25 21:01:00,38.0,15.0,-100.00,NNW,342,3.0,3.0,39,-99.99,,,-99.99,,2013-02-26 05:01:00,
2013-02-25 21:11:00,37.0,15.0,-100.00,NNW,332,4.0,5.0,40,-99.99,,,-99.99,,2013-02-26 05:11:00,
2013-02-25 21:21:00,35.0,16.0,-100.00,NNW,334,4.0,5.0,46,-99.99,,,-99.99,,2013-02-26 05:21:00,
2013-02-25 21:31:00,35.0,18.0,-100.00,NNW,333,3.0,5.0,49,-99.99,,,-99.99,,2013-02-26 05:31:00,
2013-02-25 21:42:00,35.0,17.0,-100.00,NW,321,3.0,4.0,48,-99.99,,,-99.99,,2013-02-26 05:42:00,
2013-02-25 21:52:00,35.0,17.0,-100.00,NNW,339,1.0,2.0,48,-99.99,,,-99.99,,2013-02-26 05:52:00,
2013-02-25 22:01:00,35.0,17.0,-100.00,NNW,334,1.0,1.0,48,-99.99,,,-99.99,,2013-02-26 06:01:00,
2013-02-25 22:11:00,35.0,17.0,-100.00,NNW,328,1.0,1.0,48,-99.99,,,-99.99,,2013-02-26 06:11:00,
2013-02-25 22:21:00,35.0,18.0,-100.00,NW,320,1.0,2.0,49,-99.99,,,-99.99,,2013-02-26 06:21:00,
2013-02-25 22:31:00,33.0,17.0,-100.00,West,262,1.0,1.0,52,-99.99,,,-99.99,,2013-02-26 06:31:00,
2013-02-25 22:41:00,33.0,17.0,-100.00,West,262,1.0,1.0,52,-99.99,,,-99.99,,2013-02-26 06:41:00,
2013-02-25 22:51:00,32.0,17.0,-100.00,WNW,302,2.0,2.0,53,-99.99,,,-99.99,,2013-02-26 06:51:00,
2013-02-25 23:01:00,32.0,17.0,-100.00,WNW,285,1.0,2.0,54,-99.99,,,-99.99,,2013-02-26 07:01:00,
2013-02-25 23:11:00,31.0,16.0,-100.00,West,281,0.0,1.0,54,-99.99,,,-99.99,,2013-02-26 07:11:00,
2013-02-25 23:22:00,32.0,17.0,-100.00,NW,310,1.0,2.0,53,-99.99,,,-99.99,,2013-02-26 07:22:00,
2013-02-25 23:31:00,32.0,16.0,-100.00,NW,315,2.0,3.0,52,-99.99,,,-99.99,,2013-02-26 07:31:00,
2013-02-25 23:41:00,32.0,16.0,-100.00,WSW,255,1.0,2.0,51,-99.99,,,-99.99,,2013-02-26 07:41:00,
2013-02-25 23:51:00,33.0,15.0,-100.00,NW,322,2.0,4.0,48,-99.99,,,-99.99,,2013-02-26 07:51:00,